createdAt,value
2023-01-19T00:04:24.199Z,20.05
2023-01-19T00:09:28.272Z,18.70
2023-01-19T00:14:30.985Z,24.30
2023-01-19T00:19:33.821Z,19.38
2023-01-19T00:24:36.626Z,20.42
2023-01-19T00:29:39.414Z,20.23
2023-01-19T00:34:49.475Z,21.60
2023-01-19T00:39:52.192Z,20.92
2023-01-19T00:44:55.804Z,21.15
2023-01-19T00:49:58.645Z,19.05
2023-01-19T00:55:01.303Z,19.00
2023-01-19T01:00:09.267Z,19.80
2023-01-19T01:05:12.965Z,17.02
2023-01-19T01:10:24.077Z,22.42
2023-01-19T01:15:27.648Z,21.30
2023-01-19T01:20:31.234Z,17.92
2023-01-19T01:25:37.732Z,21.90
2023-01-19T01:30:41.341Z,21.08
2023-01-19T01:35:44.077Z,19.20
2023-01-19T01:40:46.745Z,17.63
2023-01-19T01:45:49.462Z,18.38
2023-01-19T01:51:13.302Z,20.15
2023-01-19T01:56:18.447Z,18.63
2023-01-19T02:01:39.715Z,22.73
2023-01-19T02:07:01.233Z,16.17
2023-01-19T02:12:22.476Z,25.95
2023-01-19T02:17:25.259Z,43.90
2023-01-19T02:22:38.833Z,24.40
2023-01-19T02:27:42.116Z,24.13
2023-01-19T02:32:44.955Z,19.27
2023-01-19T02:37:48.334Z,22.10
2023-01-19T02:42:52.036Z,21.77
2023-01-19T02:47:55.307Z,17.27
2023-01-19T02:53:06.524Z,17.05
2023-01-19T02:58:15.756Z,20.85
2023-01-19T03:03:18.405Z,22.13
2023-01-19T03:08:30.101Z,16.92
2023-01-19T03:13:42.084Z,18.55
2023-01-19T03:18:46.658Z,21.52
2023-01-19T03:23:50.556Z,25.63
2023-01-19T03:28:55.451Z,20.60
2023-01-19T03:34:00.852Z,17.33
2023-01-19T03:39:05.268Z,23.08
2023-01-19T03:44:08.152Z,24.55
2023-01-19T03:49:11.556Z,23.17
2023-01-19T03:54:14.329Z,26.42
2023-01-19T03:59:17.723Z,23.48
2023-01-19T04:04:20.398Z,21.83
2023-01-19T04:09:23.143Z,21.70
2023-01-19T04:14:25.839Z,30.48
2023-01-19T04:19:28.771Z,30.45
2023-01-19T04:24:31.295Z,26.75
2023-01-19T04:29:33.997Z,25.30
2023-01-19T04:34:36.675Z,22.73
2023-01-19T04:39:39.300Z,24.83
2023-01-19T04:44:41.961Z,23.92
2023-01-19T04:49:44.650Z,22.33
2023-01-19T04:54:48.037Z,22.05
2023-01-19T04:59:50.804Z,20.35
2023-01-19T05:04:53.672Z,22.15
2023-01-19T05:09:56.338Z,20.25
2023-01-19T05:14:59.094Z,22.17
2023-01-19T05:20:02.085Z,20.15
2023-01-19T05:25:05.117Z,20.48
2023-01-19T05:30:07.989Z,22.58
2023-01-19T05:35:10.574Z,22.02
2023-01-19T05:40:13.355Z,23.55
2023-01-19T05:45:16.119Z,23.42
2023-01-19T05:50:18.759Z,19.17
2023-01-19T05:55:21.373Z,21.15
2023-01-19T06:00:24.984Z,21.30
2023-01-19T06:05:27.770Z,19.30
2023-01-19T06:10:30.559Z,23.85
2023-01-19T06:15:33.155Z,21.00
2023-01-19T06:20:35.948Z,19.20
2023-01-19T06:25:38.422Z,25.10
2023-01-19T06:30:42.006Z,19.77
2023-01-19T06:35:45.143Z,20.83
2023-01-19T06:40:55.742Z,21.35
2023-01-19T06:45:58.886Z,21.05
2023-01-19T06:51:01.700Z,20.95
2023-01-19T06:56:05.143Z,20.63
2023-01-19T07:01:08.196Z,19.67
2023-01-19T07:06:11.125Z,18.17
2023-01-19T07:11:26.289Z,18.27
2023-01-19T07:16:34.388Z,18.17
2023-01-19T07:21:37.399Z,19.73
2023-01-19T07:26:40.457Z,25.95
2023-01-19T07:31:43.511Z,20.70
2023-01-19T07:36:46.201Z,16.48
2023-01-19T07:41:49.054Z,19.60
2023-01-19T07:46:51.687Z,17.75
2023-01-19T07:51:56.386Z,18.13
2023-01-19T07:57:00.753Z,18.90
2023-01-19T08:02:03.633Z,16.75
2023-01-19T08:07:06.515Z,17.15
2023-01-19T08:12:09.103Z,20.63
2023-01-19T08:17:12.643Z,16.48
2023-01-19T08:22:15.265Z,17.52
2023-01-19T08:27:17.719Z,16.70
2023-01-19T08:32:20.394Z,22.70
2023-01-19T08:37:22.931Z,15.35
2023-01-19T08:42:25.621Z,15.52
2023-01-19T08:47:28.760Z,16.80
2023-01-19T08:52:31.342Z,16.75
2023-01-19T08:57:34.069Z,17.42
2023-01-19T09:02:37.185Z,14.05
2023-01-19T09:07:40.005Z,15.60
2023-01-19T09:12:43.780Z,16.65
2023-01-19T09:17:46.589Z,13.15
2023-01-19T09:22:49.354Z,16.98
2023-01-19T09:27:52.406Z,14.98
2023-01-19T09:32:55.165Z,13.45
2023-01-19T09:37:57.907Z,16.52
2023-01-19T09:43:05.367Z,14.05
2023-01-19T09:48:21.035Z,13.10
2023-01-19T09:53:33.760Z,16.55
2023-01-19T10:03:40.832Z,16.40
2023-01-19T10:08:52.879Z,13.02
2023-01-19T10:13:56.286Z,10.53
2023-01-19T10:19:02.651Z,11.48
2023-01-19T10:24:07.082Z,13.73
2023-01-19T10:29:15.724Z,12.98
2023-01-19T10:34:23.192Z,12.40
2023-01-19T10:39:26.250Z,12.18
2023-01-19T10:44:30.064Z,14.07
2023-01-19T10:49:40.001Z,12.98
2023-01-19T10:54:43.485Z,12.85
2023-01-19T10:59:51.235Z,14.25
2023-01-19T11:04:59.094Z,12.63
2023-01-19T11:10:17.674Z,12.57
2023-01-19T11:15:25.804Z,12.50
2023-01-19T11:20:34.414Z,12.27
2023-01-19T11:25:37.802Z,11.80
2023-01-19T11:30:53.978Z,14.80
2023-01-19T11:36:02.370Z,13.13
2023-01-19T11:41:06.978Z,13.32
2023-01-19T11:46:12.293Z,14.35
2023-01-19T11:51:16.451Z,13.38
2023-01-19T11:56:20.899Z,12.85
2023-01-19T12:01:31.477Z,18.13
2023-01-19T12:06:54.476Z,13.27
2023-01-19T12:11:57.194Z,12.25
2023-01-19T12:17:02.771Z,12.55
2023-01-19T12:22:05.669Z,11.75
2023-01-19T12:27:17.121Z,11.75
2023-01-19T12:32:32.243Z,13.57
2023-01-19T12:37:37.109Z,13.80
2023-01-19T12:42:44.659Z,12.45
2023-01-19T12:47:53.039Z,15.82
2023-01-19T12:53:00.553Z,15.43
2023-01-19T12:58:03.316Z,12.15
2023-01-19T13:03:26.005Z,14.65
2023-01-19T13:08:30.797Z,13.70
2023-01-19T13:13:40.025Z,12.02
2023-01-19T13:18:44.201Z,13.30
2023-01-19T13:23:52.673Z,12.40
2023-01-19T13:28:57.449Z,12.07
2023-01-19T13:34:01.702Z,13.32
2023-01-19T13:39:06.238Z,12.73
2023-01-19T13:44:18.799Z,14.27
2023-01-19T13:49:26.416Z,14.35
2023-01-19T13:54:28.974Z,11.73
2023-01-19T13:59:31.706Z,15.27
2023-01-19T14:04:34.479Z,13.93
2023-01-19T14:09:37.226Z,13.70
2023-01-19T14:14:40.392Z,10.90
2023-01-19T14:19:50.250Z,13.50
2023-01-19T14:24:52.946Z,10.15
2023-01-19T14:30:10.120Z,12.98
2023-01-19T14:35:13.903Z,23.23
2023-01-19T14:40:18.769Z,13.48
2023-01-19T14:45:34.255Z,12.25
2023-01-19T14:50:37.837Z,13.77
2023-01-19T14:55:46.520Z,13.63
2023-01-19T15:00:49.513Z,16.50
2023-01-19T15:05:52.537Z,16.38
2023-01-19T15:10:55.543Z,13.93
2023-01-19T15:15:59.225Z,15.52
2023-01-19T15:21:03.196Z,15.82
2023-01-19T15:26:06.004Z,16.05
2023-01-19T15:31:12.951Z,21.20
2023-01-19T15:36:18.107Z,17.98
2023-01-19T15:41:25.550Z,15.40
2023-01-19T15:46:28.372Z,19.58
2023-01-19T15:51:30.866Z,21.40
2023-01-19T15:56:33.681Z,18.10
2023-01-19T16:01:36.608Z,20.33
2023-01-19T16:06:39.209Z,17.33
2023-01-19T16:11:41.914Z,14.23
2023-01-19T16:16:46.414Z,17.00
2023-01-19T16:21:49.026Z,14.70
2023-01-19T16:26:51.537Z,16.42
2023-01-19T16:31:54.255Z,17.83
2023-01-19T16:36:56.907Z,19.13
2023-01-19T16:41:59.628Z,17.35
2023-01-19T16:47:02.337Z,17.77
2023-01-19T16:52:05.310Z,18.75
2023-01-19T16:57:08.011Z,16.80
2023-01-19T17:02:11.446Z,21.52
2023-01-19T17:07:14.251Z,21.98
2023-01-19T17:12:17.013Z,18.88
2023-01-19T17:17:19.567Z,20.35
2023-01-19T17:22:22.207Z,18.73
2023-01-19T17:27:24.732Z,18.73
2023-01-19T17:32:27.372Z,16.00
2023-01-19T17:37:30.071Z,22.52
2023-01-19T17:42:33.090Z,18.70
2023-01-19T17:47:35.671Z,16.40
2023-01-19T17:52:38.249Z,18.45
2023-01-19T17:57:40.940Z,18.40
2023-01-19T18:02:43.742Z,16.98
2023-01-19T18:07:46.994Z,17.33
2023-01-19T18:12:49.457Z,20.33
2023-01-19T18:17:52.191Z,18.77
2023-01-19T18:22:54.734Z,18.40
2023-01-19T18:27:57.501Z,19.20
2023-01-19T18:33:00.235Z,21.38
2023-01-19T18:38:02.916Z,19.55
2023-01-19T18:43:05.407Z,22.02
2023-01-19T18:48:08.461Z,21.52
2023-01-19T18:53:10.947Z,17.40
2023-01-19T18:58:13.786Z,17.40
2023-01-19T19:03:16.726Z,16.70
2023-01-19T19:08:34.603Z,18.38
2023-01-19T19:13:37.162Z,18.70
2023-01-19T19:18:39.926Z,18.42
2023-01-19T19:23:42.496Z,20.63
2023-01-19T19:28:47.044Z,20.30
2023-01-19T19:33:51.314Z,19.15
2023-01-19T19:38:54.109Z,16.92
2023-01-19T19:43:56.794Z,19.20
2023-01-19T19:48:59.329Z,15.10
2023-01-19T19:54:02.043Z,20.48
2023-01-19T19:59:04.482Z,19.65
2023-01-19T20:04:08.480Z,17.40
2023-01-19T20:09:12.937Z,18.20
2023-01-19T20:14:16.362Z,15.73
2023-01-19T20:19:19.073Z,16.38
2023-01-19T20:24:21.812Z,17.17
2023-01-19T20:29:24.636Z,18.17
2023-01-19T20:34:30.020Z,17.77
2023-01-19T20:39:35.635Z,17.50
2023-01-19T20:44:38.191Z,15.13
2023-01-19T20:49:41.210Z,18.27
2023-01-19T20:54:43.781Z,18.02
2023-01-19T20:59:46.440Z,17.02
2023-01-19T21:04:49.066Z,15.23
2023-01-19T21:09:51.808Z,15.38
2023-01-19T21:14:54.281Z,14.65
2023-01-19T21:19:56.994Z,16.50
2023-01-19T21:24:59.796Z,17.30
2023-01-19T21:30:02.552Z,15.30
2023-01-19T21:35:05.381Z,15.82
2023-01-19T21:40:08.166Z,14.77
2023-01-19T21:45:11.306Z,15.63
2023-01-19T21:50:13.964Z,15.23
2023-01-19T21:55:17.614Z,16.25
2023-01-19T22:00:20.934Z,16.58
2023-01-19T22:05:24.210Z,16.88
2023-01-19T22:10:27.350Z,15.48
2023-01-19T22:15:31.632Z,13.88
2023-01-19T22:20:34.346Z,14.23
2023-01-19T22:25:36.972Z,14.65
2023-01-19T22:30:39.738Z,16.75
2023-01-19T22:35:42.633Z,17.42
2023-01-19T22:40:45.134Z,18.98
2023-01-19T22:45:47.676Z,17.13
2023-01-19T22:50:55.618Z,16.75
2023-01-19T22:55:58.317Z,16.02
2023-01-19T23:01:04.960Z,14.85
2023-01-19T23:06:09.299Z,16.17
2023-01-19T23:11:15.600Z,18.05
2023-01-19T23:16:18.067Z,17.13
2023-01-19T23:21:21.410Z,15.23
2023-01-19T23:26:24.393Z,15.60
2023-01-19T23:31:31.479Z,14.98
2023-01-19T23:36:36.428Z,15.93
2023-01-19T23:41:39.104Z,16.73
2023-01-19T23:46:41.799Z,18.48
2023-01-19T23:51:44.770Z,18.23
2023-01-19T23:56:47.457Z,35.63
